Terminal Aerodrome Forecast
Issued by NWS

Home | Current Version | Previous Version | Text Only | Print | Product List | Glossary On
Versions: 1 2 3 4 5 6 7 8 9 10 11 12 13
000
FTUS45 KGGW 270520
TAFGDV
TAF
KGDV 270520Z 2706/2806 08006KT P6SM VCTS FEW100CB
     FM271200 06005KT P6SM VCTS BKN100CB
     FM271500 09006KT P6SM VCSH BKN100
     FM280000 10009KT P6SM VCTS BKN060CB=

USA.gov is the U.S. government's official web portal to all federal, state and local government web resources and services.